createdAt,value
2018-01-08T00:00:35.452Z,49.23
2018-01-08T00:01:40.148Z,49.59
2018-01-08T00:02:44.975Z,49.45
2018-01-08T00:03:49.639Z,49.17
2018-01-08T00:04:54.800Z,48.57
2018-01-08T00:05:59.613Z,49.43
2018-01-08T00:07:04.412Z,49.39
2018-01-08T00:08:09.133Z,49.13
2018-01-08T00:09:13.861Z,49.36
2018-01-08T00:10:21.002Z,48.94
2018-01-08T00:11:26.281Z,49.45
2018-01-08T00:12:31.019Z,49.13
2018-01-08T00:13:35.861Z,49.51
2018-01-08T00:14:40.599Z,49.08
2018-01-08T00:15:45.344Z,48.69
2018-01-08T00:16:50.115Z,49.64
2018-01-08T00:17:55.214Z,49.27
2018-01-08T00:18:59.958Z,49.28
2018-01-08T00:20:04.782Z,48.78
2018-01-08T00:21:09.474Z,48.95
2018-01-08T00:22:14.191Z,49.85
2018-01-08T00:23:18.918Z,48.45
2018-01-08T00:24:23.956Z,49.13
2018-01-08T00:25:28.691Z,49.19
2018-01-08T00:26:33.400Z,49.61
2018-01-08T00:27:38.131Z,49.55
2018-01-08T00:28:44.132Z,49.50
2018-01-08T00:29:49.435Z,49.57
2018-01-08T00:30:54.627Z,49.43
2018-01-08T00:31:59.436Z,49.64
2018-01-08T00:33:04.204Z,49.21
2018-01-08T00:34:08.969Z,49.27
2018-01-08T00:35:13.620Z,49.18
2018-01-08T00:36:18.292Z,49.18
2018-01-08T00:37:23.399Z,49.36
2018-01-08T00:38:28.222Z,49.14
2018-01-08T00:39:33.109Z,49.03
2018-01-08T00:40:37.823Z,49.12
2018-01-08T00:41:42.523Z,49.25
2018-01-08T00:42:47.221Z,49.01
2018-01-08T00:43:52.215Z,49.37
2018-01-08T00:44:56.919Z,49.36
2018-01-08T00:46:02.663Z,48.93
2018-01-08T00:47:07.201Z,49.20
2018-01-08T00:48:11.725Z,49.00
2018-01-08T00:49:16.231Z,49.36
2018-01-08T00:50:21.199Z,49.56
2018-01-08T00:51:25.616Z,48.96
2018-01-08T00:52:30.317Z,48.88
2018-01-08T00:53:35.015Z,49.06
2018-01-08T00:54:40.053Z,49.95
2018-01-08T00:55:44.673Z,49.49
2018-01-08T00:56:49.818Z,49.29
2018-01-08T00:57:54.431Z,50.07
2018-01-08T00:58:59.025Z,49.66
2018-01-08T01:00:04.447Z,49.60
2018-01-08T01:01:10.157Z,49.50
2018-01-08T01:02:14.951Z,49.31
2018-01-08T01:03:19.966Z,49.62
2018-01-08T01:04:24.663Z,49.01
2018-01-08T01:05:29.368Z,49.00
2018-01-08T01:06:34.045Z,48.97
2018-01-08T01:07:38.810Z,49.54
2018-01-08T01:08:43.610Z,49.20
2018-01-08T01:09:50.007Z,48.15
2018-01-08T01:10:54.746Z,49.40
2018-01-08T01:11:59.456Z,49.38
2018-01-08T01:13:04.138Z,48.96
2018-01-08T01:14:08.870Z,48.74
2018-01-08T01:15:13.574Z,49.22
2018-01-08T01:16:18.607Z,48.52
2018-01-08T01:17:24.407Z,49.34
2018-01-08T01:18:29.136Z,49.42
2018-01-08T01:19:33.866Z,49.49
2018-01-08T01:20:38.546Z,48.90
2018-01-08T01:21:43.724Z,48.76
2018-01-08T01:22:49.055Z,48.96
2018-01-08T01:23:53.752Z,49.33
2018-01-08T01:24:58.457Z,49.34
2018-01-08T01:26:03.216Z,48.51
2018-01-08T01:27:08.779Z,49.16
2018-01-08T01:28:13.581Z,48.99
2018-01-08T01:29:18.678Z,48.84
2018-01-08T01:30:23.418Z,48.97
2018-01-08T01:31:28.112Z,49.61
2018-01-08T01:32:32.837Z,49.16
2018-01-08T01:33:37.496Z,49.38
2018-01-08T01:34:42.236Z,49.37
2018-01-08T01:35:47.368Z,49.29
2018-01-08T01:36:52.178Z,49.27
2018-01-08T01:37:56.892Z,49.07
2018-01-08T01:39:01.606Z,49.32
2018-01-08T01:40:07.057Z,48.82
2018-01-08T01:41:11.778Z,48.96
2018-01-08T01:42:17.415Z,48.73
2018-01-08T01:43:22.111Z,49.44
2018-01-08T01:44:26.878Z,49.36
2018-01-08T01:45:31.585Z,48.91
2018-01-08T01:46:36.297Z,48.90
2018-01-08T01:47:40.958Z,49.58
2018-01-08T01:48:46.185Z,49.15
2018-01-08T01:49:50.990Z,49.04
2018-01-08T01:50:55.714Z,49.21
2018-01-08T01:52:00.391Z,49.08
2018-01-08T01:53:05.123Z,49.72
2018-01-08T01:54:10.507Z,49.39
2018-01-08T01:55:17.851Z,49.21
2018-01-08T01:56:22.552Z,49.67
2018-01-08T01:57:27.271Z,49.27
2018-01-08T01:58:32.065Z,48.53
2018-01-08T01:59:36.740Z,49.36
2018-01-08T02:00:41.458Z,49.22
2018-01-08T02:01:47.761Z,48.50
2018-01-08T02:02:52.439Z,49.04
2018-01-08T02:03:57.271Z,49.25
2018-01-08T02:05:02.000Z,48.63
2018-01-08T02:06:06.726Z,49.84
2018-01-08T02:07:11.429Z,49.44
2018-01-08T02:08:16.557Z,49.33
2018-01-08T02:09:21.320Z,50.04
2018-01-08T02:10:26.017Z,49.58
2018-01-08T02:11:30.649Z,49.47
2018-01-08T02:12:35.247Z,49.18
2018-01-08T02:13:39.832Z,49.90
2018-01-08T02:14:44.866Z,49.44
2018-01-08T02:15:49.535Z,49.86
2018-01-08T02:16:54.208Z,49.19
2018-01-08T02:17:58.933Z,49.71
2018-01-08T02:19:03.680Z,49.60
2018-01-08T02:20:09.042Z,49.21
2018-01-08T02:21:14.221Z,49.30
2018-01-08T02:22:18.911Z,48.96
2018-01-08T02:23:23.626Z,48.58
2018-01-08T02:24:28.490Z,49.51
2018-01-08T02:25:33.238Z,49.03
2018-01-08T02:26:37.943Z,49.48
2018-01-08T02:27:42.645Z,48.49
2018-01-08T02:28:47.346Z,48.37
2018-01-08T02:29:52.059Z,49.50
2018-01-08T02:30:56.918Z,49.42
2018-01-08T02:32:01.613Z,49.55
2018-01-08T02:33:06.785Z,49.26
2018-01-08T02:34:11.451Z,49.61
2018-01-08T02:35:16.178Z,48.98
2018-01-08T02:36:20.887Z,49.03
2018-01-08T02:37:25.627Z,49.61
2018-01-08T02:38:30.305Z,49.70
2018-01-08T02:39:35.578Z,48.98
2018-01-08T02:40:40.144Z,48.89
2018-01-08T02:41:44.754Z,49.62
2018-01-08T02:42:49.466Z,49.05
2018-01-08T02:43:54.896Z,49.49
2018-01-08T02:44:59.599Z,49.17
2018-01-08T02:46:04.702Z,49.11
2018-01-08T02:47:09.441Z,49.69
2018-01-08T02:48:14.156Z,49.02
2018-01-08T02:49:18.843Z,47.92
2018-01-08T02:50:24.446Z,49.29
2018-01-08T02:51:29.176Z,49.40
2018-01-08T02:52:34.383Z,49.15
2018-01-08T02:53:39.103Z,49.75
2018-01-08T02:54:43.831Z,49.44
2018-01-08T02:55:48.568Z,49.85
2018-01-08T02:56:53.315Z,49.69
2018-01-08T02:57:57.910Z,50.16
2018-01-08T02:59:02.994Z,50.04
2018-01-08T03:00:07.736Z,49.26
2018-01-08T03:01:12.324Z,49.22
2018-01-08T03:02:16.993Z,49.53
2018-01-08T03:03:21.765Z,49.31
2018-01-08T03:04:26.488Z,49.49
2018-01-08T03:05:31.535Z,49.19
2018-01-08T03:06:36.183Z,49.60
2018-01-08T03:07:40.861Z,49.43
2018-01-08T03:08:45.526Z,49.56
2018-01-08T03:09:50.300Z,49.10
2018-01-08T03:10:55.116Z,49.11
2018-01-08T03:12:00.464Z,49.63
2018-01-08T03:13:05.279Z,49.95
2018-01-08T03:14:10.078Z,49.74
2018-01-08T03:15:14.745Z,49.26
2018-01-08T03:16:19.413Z,49.06
2018-01-08T03:17:24.094Z,49.57
2018-01-08T03:18:29.300Z,49.55
2018-01-08T03:19:34.063Z,49.21
2018-01-08T03:20:38.812Z,49.53
2018-01-08T03:21:43.584Z,50.12
2018-01-08T03:22:48.376Z,49.08
2018-01-08T03:23:53.168Z,48.94
2018-01-08T03:24:58.331Z,50.16
2018-01-08T03:26:03.165Z,50.06
2018-01-08T03:27:07.929Z,49.77
2018-01-08T03:28:12.720Z,49.69
2018-01-08T03:29:17.608Z,49.90
2018-01-08T03:30:22.389Z,49.73
2018-01-08T03:31:27.808Z,49.91
2018-01-08T03:32:32.563Z,50.18
2018-01-08T03:33:37.290Z,49.35
2018-01-08T03:34:42.003Z,50.19
2018-01-08T03:35:46.834Z,48.72
2018-01-08T03:36:51.575Z,49.82
2018-01-08T03:37:56.821Z,49.72
2018-01-08T03:39:01.582Z,49.82
2018-01-08T03:40:06.404Z,49.87
2018-01-08T03:41:11.147Z,49.06
2018-01-08T03:42:15.863Z,50.05
2018-01-08T03:43:20.596Z,49.25
2018-01-08T03:44:25.719Z,48.51
2018-01-08T03:45:30.483Z,49.52
2018-01-08T03:46:35.235Z,49.73
2018-01-08T03:47:39.988Z,49.33
2018-01-08T03:48:44.728Z,48.78
2018-01-08T03:49:49.455Z,48.97
2018-01-08T03:50:54.606Z,48.56
2018-01-08T03:51:59.327Z,48.93
2018-01-08T03:53:04.043Z,48.89
2018-01-08T03:54:08.832Z,49.02
2018-01-08T03:55:13.533Z,48.21
2018-01-08T03:56:18.555Z,49.66
2018-01-08T03:57:24.342Z,49.13
2018-01-08T03:58:29.178Z,49.24
2018-01-08T03:59:33.805Z,48.75
2018-01-08T04:00:38.488Z,48.72
2018-01-08T04:01:43.125Z,49.03
2018-01-08T04:02:48.040Z,48.94
2018-01-08T04:03:52.498Z,48.83
2018-01-08T04:04:57.028Z,49.29
2018-01-08T04:06:01.517Z,48.51
2018-01-08T04:07:05.956Z,49.14
2018-01-08T04:08:10.417Z,48.85
2018-01-08T04:09:15.493Z,49.10
2018-01-08T04:10:20.177Z,49.14
2018-01-08T04:11:24.863Z,48.77
2018-01-08T04:12:29.600Z,49.06
2018-01-08T04:13:34.282Z,49.02
2018-01-08T04:14:38.979Z,48.50
2018-01-08T04:15:44.402Z,48.86
2018-01-08T04:16:49.072Z,48.98
2018-01-08T04:17:53.872Z,48.63
2018-01-08T04:18:58.634Z,48.77
2018-01-08T04:20:03.404Z,48.81
2018-01-08T04:21:08.187Z,48.71
2018-01-08T04:22:13.342Z,48.83
2018-01-08T04:23:18.808Z,48.97
2018-01-08T04:24:23.576Z,48.60
2018-01-08T04:25:28.163Z,48.71
2018-01-08T04:26:32.914Z,48.87
2018-01-08T04:27:37.723Z,48.78
2018-01-08T04:28:42.861Z,48.96
2018-01-08T04:29:47.697Z,48.78
2018-01-08T04:30:52.371Z,48.60
2018-01-08T04:31:57.136Z,48.69
2018-01-08T04:33:01.956Z,48.53
2018-01-08T04:34:07.676Z,48.57
2018-01-08T04:35:12.927Z,48.51
2018-01-08T04:36:17.773Z,48.82
2018-01-08T04:37:22.581Z,49.19
2018-01-08T04:38:27.369Z,48.86
2018-01-08T04:39:32.197Z,49.19
2018-01-08T04:40:37.037Z,48.47
2018-01-08T04:41:42.164Z,48.46
2018-01-08T04:42:46.984Z,48.57
2018-01-08T04:43:51.800Z,48.47
2018-01-08T04:44:56.602Z,48.77
2018-01-08T04:46:02.434Z,48.18
2018-01-08T04:47:07.055Z,48.47
2018-01-08T04:48:12.133Z,48.54
2018-01-08T04:49:16.767Z,48.82
2018-01-08T04:50:21.373Z,48.65
2018-01-08T04:51:25.966Z,48.66
2018-01-08T04:52:30.667Z,48.61
2018-01-08T04:53:36.309Z,49.19
2018-01-08T04:54:41.418Z,48.58
2018-01-08T04:55:46.217Z,48.88
2018-01-08T04:56:50.995Z,48.86
2018-01-08T04:57:55.700Z,48.81
2018-01-08T04:59:00.329Z,48.86
2018-01-08T05:00:04.987Z,48.08
2018-01-08T05:01:09.974Z,48.14
2018-01-08T05:02:14.607Z,48.77
2018-01-08T05:03:19.284Z,48.79
2018-01-08T05:04:23.929Z,48.43
2018-01-08T05:05:29.131Z,48.57
2018-01-08T05:06:33.759Z,48.77
2018-01-08T05:07:39.640Z,48.56
2018-01-08T05:08:44.386Z,48.65
2018-01-08T05:09:48.919Z,48.70
2018-01-08T05:10:53.486Z,48.56
2018-01-08T05:11:58.149Z,49.42
2018-01-08T05:13:02.874Z,49.20
2018-01-08T05:14:08.056Z,49.71
2018-01-08T05:15:12.778Z,49.08
2018-01-08T05:16:17.434Z,49.26
2018-01-08T05:17:22.232Z,49.11
2018-01-08T05:18:26.912Z,48.91
2018-01-08T05:19:31.702Z,49.12
2018-01-08T05:20:36.796Z,49.37
2018-01-08T05:21:41.489Z,48.87
2018-01-08T05:22:46.036Z,48.28
2018-01-08T05:23:50.762Z,48.39
2018-01-08T05:24:55.475Z,48.49
2018-01-08T05:26:00.247Z,48.78
2018-01-08T05:27:05.283Z,49.06
2018-01-08T05:28:10.026Z,49.25
2018-01-08T05:29:14.703Z,49.49
2018-01-08T05:30:19.317Z,49.69
2018-01-08T05:31:24.053Z,49.18
2018-01-08T05:32:28.827Z,49.77
2018-01-08T05:33:34.065Z,49.45
2018-01-08T05:34:38.824Z,48.81
2018-01-08T05:35:43.615Z,48.41
2018-01-08T05:36:48.610Z,49.05
2018-01-08T05:37:53.410Z,48.79
2018-01-08T05:38:58.175Z,48.36
2018-01-08T05:40:03.476Z,48.36
2018-01-08T05:41:08.298Z,48.73
2018-01-08T05:42:13.390Z,48.76
2018-01-08T05:43:18.213Z,49.13
2018-01-08T05:44:23.203Z,48.81
2018-01-08T05:45:28.019Z,48.47
2018-01-08T05:46:33.199Z,48.46
2018-01-08T05:47:37.933Z,48.35
2018-01-08T05:48:42.640Z,48.31
2018-01-08T05:49:47.425Z,48.28
2018-01-08T05:50:52.215Z,48.15
2018-01-08T05:51:57.000Z,48.40
2018-01-08T05:53:02.213Z,48.28
2018-01-08T05:54:07.204Z,49.05
2018-01-08T05:55:12.082Z,48.70
2018-01-08T05:56:17.018Z,48.57
2018-01-08T05:57:21.880Z,48.28
2018-01-08T05:58:26.779Z,48.09
2018-01-08T05:59:31.962Z,48.27
2018-01-08T06:00:36.898Z,48.45
2018-01-08T06:01:41.764Z,48.34
2018-01-08T06:02:46.572Z,48.93
2018-01-08T06:03:51.331Z,49.10
2018-01-08T06:04:56.101Z,48.68
2018-01-08T06:06:01.264Z,48.32
2018-01-08T06:07:05.999Z,48.03
2018-01-08T06:08:10.686Z,48.14
2018-01-08T06:09:15.447Z,48.25
2018-01-08T06:10:20.202Z,48.32
2018-01-08T06:11:25.134Z,48.12
2018-01-08T06:12:30.275Z,48.00
2018-01-08T06:13:35.023Z,48.05
2018-01-08T06:14:39.711Z,48.20
2018-01-08T06:15:44.412Z,48.00
2018-01-08T06:16:50.419Z,47.98
2018-01-08T06:17:55.128Z,47.97
2018-01-08T06:19:00.261Z,48.06
2018-01-08T06:20:04.964Z,47.78
2018-01-08T06:21:09.725Z,48.75
2018-01-08T06:22:14.424Z,48.36
2018-01-08T06:23:19.434Z,48.06
2018-01-08T06:24:24.216Z,48.13
2018-01-08T06:25:29.431Z,47.99
2018-01-08T06:26:34.170Z,47.95
2018-01-08T06:27:38.886Z,48.39
2018-01-08T06:28:43.663Z,47.90
2018-01-08T06:29:48.446Z,47.87
2018-01-08T06:30:53.281Z,48.25
2018-01-08T06:31:58.480Z,48.34
2018-01-08T06:33:03.250Z,48.90
2018-01-08T06:34:08.400Z,48.24
2018-01-08T06:35:13.248Z,48.14
2018-01-08T06:36:18.121Z,47.68
2018-01-08T06:37:22.986Z,48.11
2018-01-08T06:38:28.211Z,46.03
2018-01-08T06:39:33.183Z,48.50
2018-01-08T06:40:38.035Z,48.17
2018-01-08T06:41:42.872Z,48.27
2018-01-08T06:42:47.652Z,47.98
2018-01-08T06:43:52.756Z,47.77
2018-01-08T06:44:57.950Z,47.79
2018-01-08T06:46:02.753Z,48.02
2018-01-08T06:47:07.476Z,48.17
2018-01-08T06:48:12.211Z,48.14
2018-01-08T06:49:16.977Z,48.60
2018-01-08T06:50:21.727Z,48.31
2018-01-08T06:51:26.951Z,48.39
2018-01-08T06:52:31.682Z,48.06
2018-01-08T06:53:36.467Z,48.02
2018-01-08T06:54:41.273Z,48.03
2018-01-08T06:55:45.960Z,48.25
2018-01-08T06:56:50.689Z,47.65
2018-01-08T06:57:55.874Z,47.80
2018-01-08T06:59:00.662Z,47.74
2018-01-08T07:00:05.820Z,48.07
2018-01-08T07:01:10.536Z,48.09
2018-01-08T07:02:15.558Z,48.12
2018-01-08T07:03:20.280Z,47.43
2018-01-08T07:04:25.763Z,48.23
2018-01-08T07:05:31.806Z,48.84
2018-01-08T07:06:36.609Z,48.58
2018-01-08T07:07:41.445Z,48.33
2018-01-08T07:08:46.203Z,48.03
2018-01-08T07:09:51.253Z,48.06
2018-01-08T07:10:57.490Z,48.38
2018-01-08T07:12:02.371Z,48.19
2018-01-08T07:13:07.103Z,48.52
2018-01-08T07:14:11.986Z,47.48
2018-01-08T07:15:16.698Z,47.80
2018-01-08T07:16:21.376Z,48.38
2018-01-08T07:17:26.528Z,48.75
2018-01-08T07:18:31.373Z,48.34
2018-01-08T07:19:36.183Z,48.32
2018-01-08T07:20:40.960Z,49.12
2018-01-08T07:21:45.835Z,47.80
2018-01-08T07:22:50.641Z,48.44
2018-01-08T07:23:55.914Z,48.75
2018-01-08T07:25:00.728Z,48.59
2018-01-08T07:26:05.646Z,48.29
2018-01-08T07:27:10.430Z,48.39
2018-01-08T07:28:15.177Z,48.03
2018-01-08T07:29:20.231Z,48.69
2018-01-08T07:30:25.481Z,48.28
2018-01-08T07:31:30.207Z,48.14
2018-01-08T07:32:34.971Z,48.44
2018-01-08T07:33:40.301Z,48.00
2018-01-08T07:34:45.183Z,48.09
2018-01-08T07:35:49.801Z,48.82
2018-01-08T07:36:55.036Z,48.81
2018-01-08T07:37:59.859Z,48.41
2018-01-08T07:39:04.944Z,48.09
2018-01-08T07:40:09.790Z,47.93
2018-01-08T07:41:14.537Z,48.65
2018-01-08T07:42:19.678Z,47.87
2018-01-08T07:43:25.017Z,48.38
2018-01-08T07:44:29.881Z,48.10
2018-01-08T07:45:34.747Z,48.14
2018-01-08T07:46:39.827Z,48.22
2018-01-08T07:47:44.663Z,48.00
2018-01-08T07:48:49.673Z,48.48
2018-01-08T07:49:54.946Z,48.29
2018-01-08T07:51:01.485Z,48.30
2018-01-08T07:52:06.888Z,48.52
2018-01-08T07:53:12.959Z,48.52
2018-01-08T07:54:18.020Z,48.46
2018-01-08T07:55:22.869Z,47.95
2018-01-08T07:56:28.510Z,48.36
2018-01-08T07:57:40.614Z,48.44
2018-01-08T07:58:45.566Z,48.89
2018-01-08T07:59:50.323Z,48.72
2018-01-08T08:00:55.109Z,48.54
2018-01-08T08:01:59.937Z,48.74
2018-01-08T08:03:05.058Z,48.38
2018-01-08T08:04:10.773Z,48.20
2018-01-08T08:05:15.484Z,48.33
2018-01-08T08:06:20.241Z,48.27
2018-01-08T08:07:24.937Z,48.54
2018-01-08T08:08:29.772Z,48.38
2018-01-08T08:09:34.916Z,48.39
2018-01-08T08:10:39.682Z,48.09
2018-01-08T08:11:44.377Z,48.39
2018-01-08T08:12:49.111Z,48.82
2018-01-08T08:13:53.858Z,49.25
2018-01-08T08:14:58.628Z,48.90
2018-01-08T08:16:03.806Z,48.23
2018-01-08T08:17:08.604Z,48.70
2018-01-08T08:18:13.447Z,48.57
2018-01-08T08:19:18.263Z,49.01
2018-01-08T08:20:23.004Z,48.88
2018-01-08T08:21:28.094Z,48.52
2018-01-08T08:22:33.244Z,48.10
2018-01-08T08:23:37.965Z,49.03
2018-01-08T08:24:42.839Z,48.41
2018-01-08T08:25:47.599Z,49.00
2018-01-08T08:26:52.382Z,49.32
2018-01-08T08:27:57.157Z,49.04
2018-01-08T08:29:02.348Z,49.35
2018-01-08T08:30:07.043Z,48.93
2018-01-08T08:31:11.796Z,49.09
2018-01-08T08:32:17.705Z,48.70
2018-01-08T08:33:22.457Z,48.61
2018-01-08T08:34:27.162Z,48.62
2018-01-08T08:35:32.398Z,48.55
2018-01-08T08:36:37.160Z,48.30
2018-01-08T08:37:42.148Z,48.75
2018-01-08T08:38:46.827Z,48.42
2018-01-08T08:39:51.449Z,48.86
2018-01-08T08:40:56.387Z,48.63
2018-01-08T08:42:01.475Z,48.90
2018-01-08T08:43:06.255Z,47.73
2018-01-08T08:44:12.191Z,48.65
2018-01-08T08:45:16.922Z,48.68
2018-01-08T08:46:21.644Z,48.67
2018-01-08T08:47:26.399Z,48.51
2018-01-08T08:48:31.666Z,48.57
2018-01-08T08:49:36.325Z,49.02
2018-01-08T08:50:40.947Z,48.81
2018-01-08T08:51:45.599Z,48.93
2018-01-08T08:52:50.207Z,48.85
2018-01-08T08:53:55.883Z,48.92
2018-01-08T08:55:01.234Z,48.57
2018-01-08T08:56:05.846Z,48.66
2018-01-08T08:57:10.521Z,48.70
2018-01-08T08:58:18.717Z,48.78
2018-01-08T08:59:20.103Z,49.03
2018-01-08T09:00:24.823Z,49.12
2018-01-08T09:01:30.161Z,49.11
2018-01-08T09:02:34.977Z,48.90
2018-01-08T09:03:39.805Z,48.18
2018-01-08T09:04:44.687Z,49.31
2018-01-08T09:05:50.446Z,49.22
2018-01-08T09:06:55.272Z,48.94
2018-01-08T09:08:00.346Z,49.89
2018-01-08T09:09:05.450Z,49.11
2018-01-08T09:10:10.631Z,49.47
2018-01-08T09:11:15.284Z,49.04
2018-01-08T09:12:19.901Z,48.47
2018-01-08T09:13:24.702Z,49.43
2018-01-08T09:14:29.931Z,48.89
2018-01-08T09:15:36.603Z,49.43
2018-01-08T09:16:41.396Z,49.12
2018-01-08T09:17:46.126Z,49.79
2018-01-08T09:18:50.906Z,49.45
2018-01-08T09:19:55.639Z,49.30
2018-01-08T09:21:00.799Z,49.92
2018-01-08T09:22:05.510Z,49.41
2018-01-08T09:23:10.288Z,49.26
2018-01-08T09:24:15.068Z,49.46
2018-01-08T09:25:20.735Z,49.31
2018-01-08T09:26:25.446Z,49.38
2018-01-08T09:27:30.956Z,49.04
2018-01-08T09:28:35.665Z,49.12
2018-01-08T09:29:40.408Z,49.55
2018-01-08T09:30:45.180Z,49.13
2018-01-08T09:31:50.056Z,49.86
2018-01-08T09:32:54.813Z,49.37
2018-01-08T09:34:00.232Z,49.36
2018-01-08T09:35:05.055Z,48.94
2018-01-08T09:36:09.846Z,48.85
2018-01-08T09:37:15.536Z,49.48
2018-01-08T09:38:20.324Z,49.25
2018-01-08T09:39:25.151Z,48.89
2018-01-08T09:40:30.503Z,49.42
2018-01-08T09:41:35.304Z,49.31
2018-01-08T09:42:40.130Z,48.87
2018-01-08T09:43:46.005Z,49.16
2018-01-08T09:44:50.823Z,49.29
2018-01-08T09:45:55.595Z,48.98
2018-01-08T09:47:00.702Z,49.07
2018-01-08T09:48:05.435Z,49.32
2018-01-08T09:49:10.109Z,49.11
2018-01-08T09:50:14.727Z,48.71
2018-01-08T09:51:19.391Z,48.68
2018-01-08T09:52:24.185Z,48.62
2018-01-08T09:53:29.288Z,48.30
2018-01-08T09:54:35.571Z,48.59
2018-01-08T09:55:41.458Z,48.64
2018-01-08T09:56:46.169Z,48.79
2018-01-08T09:57:51.000Z,48.48
2018-01-08T09:58:55.803Z,48.36
2018-01-08T10:00:01.013Z,48.43
2018-01-08T10:01:05.794Z,48.51
2018-01-08T10:02:10.870Z,48.65
2018-01-08T10:03:20.885Z,48.33
2018-01-08T10:04:32.420Z,47.89
2018-01-08T10:05:43.185Z,48.44
2018-01-08T10:06:53.623Z,48.23
2018-01-08T10:08:03.431Z,48.23
2018-01-08T10:09:14.484Z,48.20
2018-01-08T10:10:24.389Z,48.13
2018-01-08T10:11:35.533Z,48.16
2018-01-08T10:12:45.536Z,47.99
2018-01-08T10:13:55.365Z,48.17
2018-01-08T10:15:06.218Z,48.04
2018-01-08T10:16:17.677Z,47.71
2018-01-08T10:17:27.975Z,47.79
2018-01-08T10:18:32.488Z,47.32
2018-01-08T10:19:44.201Z,47.55
2018-01-08T10:20:48.979Z,47.72
2018-01-08T10:21:54.106Z,47.73
2018-01-08T10:22:58.652Z,47.54
2018-01-08T10:24:03.606Z,47.67
2018-01-08T10:25:08.140Z,47.72
2018-01-08T10:26:12.752Z,47.58
2018-01-08T10:27:20.202Z,47.59
2018-01-08T10:28:26.457Z,47.73
2018-01-08T10:29:31.198Z,47.73
2018-01-08T10:30:36.286Z,47.35
2018-01-08T10:31:41.064Z,47.33
2018-01-08T10:32:45.789Z,47.72
2018-01-08T10:33:50.578Z,47.60
2018-01-08T10:34:55.376Z,47.44
2018-01-08T10:36:00.457Z,47.75
2018-01-08T10:37:05.909Z,47.91
2018-01-08T10:38:10.888Z,47.42
2018-01-08T10:39:16.188Z,47.61
2018-01-08T10:40:21.163Z,47.79
2018-01-08T10:41:31.854Z,47.52
2018-01-08T10:42:41.688Z,47.68
2018-01-08T10:43:53.509Z,47.94
2018-01-08T10:45:04.288Z,47.12
2018-01-08T10:46:16.208Z,47.63
2018-01-08T10:47:27.293Z,47.76
2018-01-08T10:48:38.155Z,47.74
2018-01-08T10:49:47.706Z,47.37
2018-01-08T10:50:57.169Z,47.37
2018-01-08T10:52:01.133Z,47.77
2018-01-08T10:53:06.391Z,47.21
2018-01-08T10:54:11.887Z,47.47
2018-01-08T10:55:20.219Z,47.36
2018-01-08T10:56:24.856Z,47.45
2018-01-08T10:57:29.563Z,47.44
2018-01-08T10:58:35.255Z,47.72
2018-01-08T10:59:39.975Z,47.70
2018-01-08T11:00:45.519Z,47.68
2018-01-08T11:01:55.207Z,48.11
2018-01-08T11:04:07.330Z,49.04
2018-01-08T11:05:12.185Z,51.02
2018-01-08T11:06:16.992Z,51.64
2018-01-08T11:07:21.636Z,52.39
2018-01-08T11:08:26.776Z,52.40
2018-01-08T11:09:31.512Z,52.84
2018-01-08T11:10:37.145Z,53.81
2018-01-08T11:11:41.997Z,53.42
2018-01-08T11:12:46.823Z,52.96
2018-01-08T11:13:51.691Z,53.62
2018-01-08T11:14:56.875Z,53.34
2018-01-08T11:16:02.176Z,52.57
2018-01-08T11:17:06.919Z,52.30
2018-01-08T11:18:11.937Z,52.52
2018-01-08T11:19:16.703Z,52.72
2018-01-08T11:20:21.448Z,52.37
2018-01-08T11:21:27.450Z,52.71
2018-01-08T11:22:32.215Z,51.96
2018-01-08T11:23:37.060Z,51.77
2018-01-08T11:24:41.836Z,51.26
2018-01-08T11:25:46.589Z,51.38
2018-01-08T11:26:51.366Z,51.82
2018-01-08T11:27:56.494Z,51.65
2018-01-08T11:29:01.310Z,51.26
2018-01-08T11:30:06.122Z,51.21
2018-01-08T11:31:10.876Z,51.80
2018-01-08T11:32:15.746Z,51.95
2018-01-08T11:33:20.561Z,51.02
2018-01-08T11:34:25.784Z,51.02
2018-01-08T11:35:30.526Z,51.13
2018-01-08T11:36:35.393Z,50.62
2018-01-08T11:37:40.213Z,51.17
2018-01-08T11:38:45.025Z,51.28
2018-01-08T11:39:49.876Z,49.81
2018-01-08T11:40:55.225Z,51.08
2018-01-08T11:42:01.076Z,51.10
2018-01-08T11:43:06.110Z,51.06
2018-01-08T11:44:10.885Z,50.72
2018-01-08T11:45:15.662Z,50.80
2018-01-08T11:46:20.431Z,50.78
2018-01-08T11:47:26.915Z,50.53
2018-01-08T11:48:32.663Z,50.31
2018-01-08T11:49:37.419Z,50.55
2018-01-08T11:50:42.442Z,50.65
2018-01-08T11:51:47.200Z,50.60
2018-01-08T11:52:51.987Z,50.44
2018-01-08T11:53:57.121Z,50.57
2018-01-08T11:55:01.997Z,50.66
2018-01-08T11:56:06.786Z,50.84
2018-01-08T11:57:11.632Z,50.82
2018-01-08T11:58:16.371Z,50.55
2018-01-08T11:59:21.242Z,50.23
2018-01-08T12:00:26.374Z,50.52
2018-01-08T12:01:31.652Z,50.38
2018-01-08T12:02:36.427Z,50.51
2018-01-08T12:03:41.204Z,50.25
2018-01-08T12:04:45.952Z,50.00
2018-01-08T12:05:50.708Z,50.27
2018-01-08T12:06:55.933Z,50.09
2018-01-08T12:08:01.503Z,49.93
2018-01-08T12:09:06.363Z,50.37
2018-01-08T12:10:11.457Z,49.85
2018-01-08T12:11:16.244Z,50.11
2018-01-08T12:12:21.007Z,50.14
2018-01-08T12:13:27.141Z,49.95
2018-01-08T12:14:32.773Z,49.88
2018-01-08T12:15:38.350Z,49.83
2018-01-08T12:16:43.819Z,49.70
2018-01-08T12:17:49.660Z,49.90
2018-01-08T12:18:55.139Z,50.52
2018-01-08T12:20:01.219Z,50.19
2018-01-08T12:21:06.516Z,49.66
2018-01-08T12:22:11.932Z,50.06
2018-01-08T12:23:18.368Z,49.89
2018-01-08T12:24:24.871Z,49.93
2018-01-08T12:25:30.674Z,49.81
2018-01-08T12:26:37.201Z,49.88
2018-01-08T12:27:42.777Z,49.49
2018-01-08T12:28:48.227Z,50.03
2018-01-08T12:29:53.606Z,49.68
2018-01-08T12:31:00.630Z,49.71
2018-01-08T12:32:06.118Z,49.65
2018-01-08T12:33:11.740Z,50.02
2018-01-08T12:34:17.121Z,49.65
2018-01-08T12:35:23.364Z,49.52
2018-01-08T12:36:28.862Z,49.65
2018-01-08T12:37:34.446Z,49.59
2018-01-08T12:38:40.076Z,49.67
2018-01-08T12:39:46.294Z,49.45
2018-01-08T20:08:29.016Z,46.83
2018-01-08T20:09:37.410Z,47.05
2018-01-08T20:10:44.250Z,46.70
2018-01-08T20:11:52.694Z,46.58
2018-01-08T20:13:02.251Z,47.05
2018-01-08T20:14:10.539Z,46.76
2018-01-08T20:15:19.519Z,46.83
2018-01-08T20:16:27.306Z,46.85
2018-01-08T20:17:35.511Z,46.83
2018-01-08T20:18:44.548Z,46.73
2018-01-08T20:19:53.472Z,47.10
2018-01-08T20:21:02.922Z,46.87
2018-01-08T20:22:11.751Z,46.99
2018-01-08T20:23:20.535Z,46.92
2018-01-08T20:24:30.051Z,46.87
2018-01-08T20:25:39.310Z,46.75
2018-01-08T20:26:48.266Z,46.93
2018-01-08T20:27:58.343Z,46.74
2018-01-08T20:29:07.203Z,46.88
2018-01-08T20:30:13.086Z,46.86
2018-01-08T20:31:20.687Z,46.97
2018-01-08T20:32:28.919Z,46.83
2018-01-08T20:33:37.300Z,46.85
2018-01-08T20:34:46.290Z,47.10
2018-01-08T20:35:54.628Z,47.13
2018-01-08T20:37:07.870Z,47.12
2018-01-08T20:38:16.370Z,47.05
2018-01-08T20:39:23.863Z,46.97
2018-01-08T20:40:31.455Z,47.05
2018-01-08T20:41:40.306Z,47.22
2018-01-08T20:42:48.714Z,47.22
2018-01-08T20:43:57.002Z,47.48
2018-01-08T20:45:05.099Z,47.21
2018-01-08T20:46:13.106Z,46.99
2018-01-08T20:47:22.394Z,47.06
2018-01-08T20:48:30.953Z,47.46
2018-01-08T20:49:39.105Z,47.01
2018-01-08T20:50:47.658Z,46.90
2018-01-08T20:51:59.302Z,46.98
2018-01-08T20:53:07.329Z,46.98
2018-01-08T20:54:16.077Z,46.50
2018-01-08T20:55:23.101Z,45.89
2018-01-08T20:56:31.280Z,47.46
2018-01-08T20:57:39.512Z,47.06
2018-01-08T20:58:47.173Z,46.92
2018-01-08T20:59:53.686Z,47.36
2018-01-08T21:01:02.077Z,47.00
2018-01-08T21:02:09.289Z,47.35
2018-01-08T21:03:14.472Z,47.12
2018-01-08T21:04:22.346Z,47.36
2018-01-08T21:05:33.093Z,47.23
2018-01-08T21:06:40.839Z,47.19
2018-01-08T21:07:49.375Z,47.39
2018-01-08T21:08:57.322Z,47.19
2018-01-08T21:10:04.221Z,47.20
2018-01-08T21:11:12.308Z,47.63
2018-01-08T21:12:20.014Z,47.43
2018-01-08T21:13:30.354Z,47.46
2018-01-08T21:14:40.336Z,47.33
2018-01-08T21:15:48.809Z,47.15
2018-01-08T21:16:57.459Z,47.25
2018-01-08T21:18:05.948Z,47.17
2018-01-08T21:19:12.660Z,47.21
2018-01-08T21:20:20.606Z,47.46
2018-01-08T21:21:28.428Z,46.94
2018-01-08T21:22:33.481Z,47.24
2018-01-08T21:23:39.836Z,47.41
2018-01-08T21:24:45.148Z,47.26
2018-01-08T21:25:52.219Z,47.17
2018-01-08T21:26:59.459Z,47.19
2018-01-08T21:28:04.921Z,47.18
2018-01-08T21:29:11.113Z,47.12
2018-01-08T21:30:16.142Z,47.03
2018-01-08T21:31:22.227Z,47.08